createdAt,value
2022-09-10T00:02:01.834Z,0.90
2022-09-10T00:04:28.356Z,0.90
2022-09-10T00:06:55.463Z,0.90
2022-09-10T00:09:21.932Z,0.75
2022-09-10T00:11:48.551Z,1.02
2022-09-10T00:14:17.262Z,0.60
2022-09-10T00:16:43.753Z,0.80
2022-09-10T00:19:10.623Z,0.73
2022-09-10T00:21:37.381Z,0.90
2022-09-10T00:24:05.163Z,0.95
2022-09-10T00:26:35.623Z,0.80
2022-09-10T00:29:02.290Z,1.00
2022-09-10T00:31:30.450Z,0.98
2022-09-10T00:33:57.736Z,1.52
2022-09-10T00:36:25.119Z,0.80
2022-09-10T00:38:53.263Z,0.90
2022-09-10T00:41:20.900Z,0.98
2022-09-10T00:43:49.072Z,0.70
2022-09-10T00:46:22.433Z,1.02
2022-09-10T00:48:48.768Z,0.70
2022-09-10T00:51:15.154Z,0.80
2022-09-10T00:53:43.068Z,1.13
2022-09-10T00:56:09.397Z,1.13
2022-09-10T00:58:36.011Z,1.00
2022-09-10T01:01:02.543Z,1.42
2022-09-10T01:03:31.096Z,1.23
2022-09-10T01:05:57.463Z,0.82
2022-09-10T01:08:24.063Z,1.15
2022-09-10T01:10:59.619Z,1.13
2022-09-10T01:13:36.032Z,0.85
2022-09-10T01:16:18.046Z,1.60
2022-09-10T01:18:45.038Z,1.20
2022-09-10T01:21:32.783Z,1.25
2022-09-10T01:24:02.288Z,1.20
2022-09-10T01:26:35.140Z,1.20
2022-09-10T01:29:20.025Z,1.10
2022-09-10T01:32:02.862Z,1.20
2022-09-10T01:34:34.433Z,1.55
2022-09-10T01:37:06.231Z,1.15
2022-09-10T01:39:34.081Z,1.35
2022-09-10T01:42:00.670Z,1.67
2022-09-10T01:44:47.429Z,1.10
2022-09-10T01:47:32.511Z,1.10
2022-09-10T01:50:01.628Z,1.10
2022-09-10T01:52:30.667Z,1.00
2022-09-10T01:55:12.287Z,1.05
2022-09-10T01:57:59.321Z,1.20
2022-09-10T02:00:26.453Z,1.10
2022-09-10T02:03:16.070Z,0.90
2022-09-10T02:05:45.114Z,0.47
2022-09-10T02:08:14.609Z,0.60
2022-09-10T02:11:07.277Z,0.98
2022-09-10T02:13:34.368Z,0.77
2022-09-10T02:16:03.244Z,0.60
2022-09-10T02:18:31.280Z,0.90
2022-09-10T02:20:58.092Z,0.82
2022-09-10T02:23:35.077Z,1.15
2022-09-10T02:26:01.687Z,0.73
2022-09-10T02:28:28.181Z,0.80
2022-09-10T02:30:55.021Z,0.85
2022-09-10T02:33:21.870Z,0.77
2022-09-10T02:35:49.715Z,0.60
2022-09-10T02:38:16.929Z,0.80
2022-09-10T02:40:43.299Z,0.80
2022-09-10T02:43:09.712Z,1.08
2022-09-10T02:45:37.552Z,0.80
2022-09-10T02:48:04.210Z,1.10
2022-09-10T02:50:30.544Z,1.00
2022-09-10T02:52:57.992Z,0.77
2022-09-10T02:55:24.848Z,1.30
2022-09-10T02:57:51.196Z,1.77
2022-09-10T03:00:20.128Z,1.10
2022-09-10T03:02:50.588Z,0.88
2022-09-10T03:05:17.714Z,0.98
2022-09-10T03:07:44.833Z,0.95
2022-09-10T03:10:11.140Z,1.20
2022-09-10T03:12:38.057Z,1.05
2022-09-10T03:15:04.865Z,1.05
2022-09-10T03:17:31.374Z,0.70
2022-09-10T03:19:58.375Z,1.00
2022-09-10T03:22:24.777Z,1.08
2022-09-10T03:24:51.074Z,0.80
2022-09-10T03:27:18.050Z,1.00
2022-09-10T03:29:45.469Z,0.77
2022-09-10T03:32:11.797Z,1.10
2022-09-10T03:34:39.894Z,0.60
2022-09-10T03:37:06.208Z,0.60
2022-09-10T03:39:32.569Z,0.88
2022-09-10T03:41:59.127Z,0.90
2022-09-10T03:44:25.485Z,0.88
2022-09-10T03:46:52.005Z,0.88
2022-09-10T03:49:18.308Z,1.20
2022-09-10T03:51:44.634Z,1.30
2022-09-10T03:54:10.956Z,1.13
2022-09-10T03:56:37.418Z,1.45
2022-09-10T03:59:03.807Z,1.40
2022-09-10T04:01:30.177Z,1.40
2022-09-10T04:03:56.829Z,1.60
2022-09-10T04:06:23.311Z,1.35
2022-09-10T04:08:50.050Z,1.63
2022-09-10T04:11:16.432Z,1.27
2022-09-10T04:13:42.736Z,1.23
2022-09-10T04:16:09.928Z,1.05
2022-09-10T04:18:36.432Z,1.02
2022-09-10T04:21:03.151Z,0.95
2022-09-10T04:23:29.513Z,1.00
2022-09-10T04:25:57.095Z,1.20
2022-09-10T04:28:24.079Z,0.98
2022-09-10T04:30:51.176Z,1.00
2022-09-10T04:33:17.876Z,1.00
2022-09-10T04:35:44.165Z,1.17
2022-09-10T04:38:11.063Z,1.50
2022-09-10T04:40:40.976Z,1.20
2022-09-10T04:43:07.317Z,0.65
2022-09-10T04:45:34.660Z,1.13
2022-09-10T04:48:06.165Z,1.45
2022-09-10T04:50:33.378Z,1.60
2022-09-10T04:53:00.465Z,1.70
2022-09-10T04:55:27.686Z,1.23
2022-09-10T04:57:54.531Z,1.27
2022-09-10T05:00:21.117Z,1.30
2022-09-10T05:02:47.480Z,1.00
2022-09-10T05:05:13.861Z,1.20
2022-09-10T05:07:40.216Z,1.30
2022-09-10T05:10:10.345Z,0.80
2022-09-10T05:12:41.305Z,1.60
2022-09-10T05:15:08.039Z,1.70
2022-09-10T05:17:34.451Z,1.60
2022-09-10T05:20:00.882Z,1.50
2022-09-10T05:22:33.697Z,1.45
2022-09-10T05:25:03.272Z,1.63
2022-09-10T05:27:29.589Z,1.50
2022-09-10T05:29:57.417Z,1.27
2022-09-10T05:32:23.973Z,1.52
2022-09-10T05:34:50.408Z,1.80
2022-09-10T05:37:16.927Z,1.23
2022-09-10T05:39:43.370Z,1.42
2022-09-10T05:42:09.744Z,1.83
2022-09-10T05:44:36.364Z,1.27
2022-09-10T05:47:02.728Z,1.10
2022-09-10T05:49:31.875Z,0.95
2022-09-10T05:51:58.187Z,1.50
2022-09-10T05:54:24.742Z,1.50
2022-09-10T05:56:51.600Z,1.23
2022-09-10T05:59:18.021Z,1.70
2022-09-10T06:01:44.945Z,1.23
2022-09-10T06:04:22.087Z,0.90
2022-09-10T06:06:52.439Z,0.82
2022-09-10T06:09:19.412Z,0.32
2022-09-10T06:11:49.719Z,0.77
2022-09-10T06:14:16.225Z,0.60
2022-09-10T06:16:45.760Z,0.38
2022-09-10T06:19:12.200Z,0.65
2022-09-10T06:21:41.757Z,0.73
2022-09-10T06:24:08.628Z,0.40
2022-09-10T06:26:35.455Z,0.45
2022-09-10T06:29:01.798Z,0.50
2022-09-10T06:31:28.135Z,0.68
2022-09-10T06:33:54.493Z,0.40
2022-09-10T06:36:20.932Z,0.30
2022-09-10T06:38:49.546Z,0.40
2022-09-10T06:41:17.367Z,0.40
2022-09-10T06:43:43.810Z,0.40
2022-09-10T06:46:40.686Z,0.30
2022-09-10T06:49:02.991Z,0.43
2022-09-10T06:51:29.849Z,0.77
2022-09-10T06:53:56.860Z,0.30
2022-09-10T06:56:23.291Z,0.50
2022-09-10T06:58:49.747Z,0.57
2022-09-10T07:01:20.529Z,0.40
2022-09-10T07:03:47.314Z,0.52
2022-09-10T07:06:15.406Z,0.30
2022-09-10T07:08:42.100Z,0.77
2022-09-10T07:11:11.299Z,0.40
2022-09-10T07:13:37.829Z,0.40
2022-09-10T07:16:04.394Z,0.95
2022-09-10T07:18:31.040Z,0.20
2022-09-10T07:21:09.667Z,0.57
2022-09-10T07:23:36.095Z,0.50
2022-09-10T07:26:03.777Z,0.70
2022-09-10T07:28:30.257Z,0.70
2022-09-10T07:30:56.612Z,0.52
2022-09-10T07:33:23.079Z,0.82
2022-09-10T07:35:49.760Z,3.25
2022-09-10T07:38:17.273Z,3.53
2022-09-10T07:40:48.334Z,5.20
2022-09-10T07:43:14.710Z,4.07
2022-09-10T07:45:41.790Z,4.97
2022-09-10T07:48:08.280Z,7.22
2022-09-10T07:50:35.214Z,7.22
2022-09-10T07:53:01.576Z,7.15
2022-09-10T07:55:29.128Z,5.57
2022-09-10T07:57:59.542Z,7.45
2022-09-10T08:00:26.491Z,7.45
2022-09-10T08:02:52.891Z,7.25
2022-09-10T08:05:19.263Z,7.97
2022-09-10T08:07:45.692Z,8.85
2022-09-10T08:10:13.409Z,8.57
2022-09-10T08:12:40.368Z,7.53
2022-09-10T08:15:08.069Z,7.30
2022-09-10T08:17:36.237Z,6.95
2022-09-10T08:20:04.453Z,5.18
2022-09-10T08:22:31.681Z,7.00
2022-09-10T08:24:59.226Z,6.47
2022-09-10T08:27:25.567Z,6.63
2022-09-10T08:29:53.280Z,4.82
2022-09-10T08:32:19.648Z,5.45
2022-09-10T08:34:46.116Z,3.85
2022-09-10T08:37:12.526Z,5.35
2022-09-10T08:39:38.909Z,4.47
2022-09-10T08:42:09.328Z,3.53
2022-09-10T08:44:38.747Z,3.67
2022-09-10T08:47:08.188Z,3.85
2022-09-10T08:49:53.277Z,3.70
2022-09-10T08:52:27.148Z,4.03
2022-09-10T08:54:57.736Z,4.18
2022-09-10T08:57:35.085Z,3.75
2022-09-10T09:00:01.900Z,3.35
2022-09-10T09:02:47.659Z,5.00
2022-09-10T09:05:19.402Z,3.22
2022-09-10T09:07:48.276Z,3.45
2022-09-10T09:10:42.023Z,2.15
2022-09-10T09:13:27.079Z,2.10
2022-09-10T09:15:53.821Z,2.42
2022-09-10T09:18:20.250Z,1.63
2022-09-10T09:20:48.829Z,1.55
2022-09-10T09:23:22.630Z,1.50
2022-09-10T09:25:50.979Z,1.30
2022-09-10T09:28:21.929Z,1.52
2022-09-10T09:30:49.704Z,1.05
2022-09-10T09:33:18.375Z,1.20
2022-09-10T09:35:47.719Z,1.38
2022-09-10T09:38:19.885Z,1.73
2022-09-10T09:40:46.650Z,1.77
2022-09-10T09:43:12.925Z,1.50
2022-09-10T09:45:43.311Z,1.35
2022-09-10T09:48:12.014Z,2.15
2022-09-10T09:50:40.103Z,1.75
2022-09-10T09:53:06.509Z,1.20
2022-09-10T09:55:35.998Z,1.88
2022-09-10T09:58:20.962Z,2.10
2022-09-10T10:00:53.747Z,2.30
2022-09-10T10:03:27.664Z,2.28
2022-09-10T10:06:07.865Z,3.00
2022-09-10T10:08:39.975Z,3.00
2022-09-10T10:11:06.920Z,3.03
2022-09-10T10:13:37.797Z,2.42
2022-09-10T10:16:33.784Z,2.60
2022-09-10T10:19:00.199Z,3.10
2022-09-10T10:21:31.007Z,2.53
2022-09-10T10:23:57.493Z,2.67
2022-09-10T10:26:24.015Z,2.15
2022-09-10T10:28:51.440Z,2.17
2022-09-10T10:31:18.573Z,2.13
2022-09-10T10:33:47.895Z,2.00
2022-09-10T10:36:20.793Z,2.08
2022-09-10T10:38:52.177Z,1.73
2022-09-10T10:41:37.234Z,1.58
2022-09-10T10:44:13.143Z,1.30
2022-09-10T10:46:53.901Z,1.55
2022-09-10T10:49:40.547Z,1.30
2022-09-10T10:52:12.975Z,1.50
2022-09-10T10:55:05.546Z,1.63
2022-09-10T10:57:50.774Z,1.60
2022-09-10T11:00:18.897Z,1.50
2022-09-10T11:03:03.848Z,1.58
2022-09-10T11:05:32.387Z,1.60
2022-09-10T11:07:59.956Z,1.40
2022-09-10T11:10:46.553Z,1.70
2022-09-10T11:13:22.178Z,1.95
2022-09-10T11:18:28.314Z,1.85
2022-09-10T11:20:58.923Z,1.35
2022-09-10T11:23:29.727Z,1.33
2022-09-10T11:26:00.924Z,1.33
2022-09-10T11:28:49.989Z,0.90
2022-09-10T11:31:34.086Z,0.90
2022-09-10T11:34:04.444Z,1.10
2022-09-10T11:36:33.504Z,1.00
2022-09-10T11:39:03.159Z,1.20
2022-09-10T11:41:31.442Z,0.90
2022-09-10T11:44:00.748Z,0.73
2022-09-10T11:46:32.884Z,1.02
2022-09-10T11:49:05.085Z,1.08
2022-09-10T11:51:34.120Z,1.13
2022-09-10T11:54:01.705Z,1.08
2022-09-10T11:56:46.811Z,1.00
2022-09-10T11:59:17.109Z,1.45
2022-09-10T12:01:49.729Z,1.05
2022-09-10T12:04:19.555Z,1.10
2022-09-10T12:06:54.777Z,1.63
2022-09-10T12:09:29.181Z,1.30
2022-09-10T12:12:04.676Z,1.50
2022-09-10T12:14:31.174Z,1.00
2022-09-10T12:16:57.450Z,1.50
2022-09-10T12:19:32.547Z,0.90
2022-09-10T12:22:01.687Z,1.00
2022-09-10T12:24:32.356Z,1.13
2022-09-10T12:27:02.655Z,1.20
2022-09-10T12:29:30.967Z,0.93
2022-09-10T12:32:09.740Z,1.10
2022-09-10T12:34:36.797Z,1.00
2022-09-10T12:37:03.259Z,1.35
2022-09-10T12:39:30.031Z,1.20
2022-09-10T12:41:56.523Z,1.02
2022-09-10T12:44:47.500Z,1.08
2022-09-10T12:47:13.894Z,1.08
2022-09-10T12:50:00.704Z,1.10
2022-09-10T12:52:45.750Z,1.02
2022-09-10T12:55:22.702Z,1.30
2022-09-10T12:58:16.916Z,0.98
2022-09-10T13:00:48.673Z,1.33
2022-09-10T13:03:17.557Z,1.23
2022-09-10T13:05:43.946Z,0.95
2022-09-10T13:08:18.759Z,1.00
2022-09-10T13:10:47.031Z,1.13
2022-09-10T13:13:22.884Z,0.88
2022-09-10T13:15:50.776Z,0.70
2022-09-10T13:18:28.361Z,0.90
2022-09-10T13:20:54.938Z,0.77
2022-09-10T13:23:22.798Z,1.00
2022-09-10T13:25:50.090Z,1.20
2022-09-10T13:28:32.847Z,1.00
2022-09-10T13:31:01.692Z,1.20
2022-09-10T13:33:33.377Z,0.90
2022-09-10T13:35:59.792Z,1.50
2022-09-10T13:38:33.020Z,1.20
2022-09-10T13:41:20.128Z,1.15
2022-09-10T13:43:48.679Z,1.75
2022-09-10T13:46:23.654Z,1.58
2022-09-10T13:48:52.676Z,1.10
2022-09-10T13:51:31.087Z,1.42
2022-09-10T13:54:01.662Z,1.33
2022-09-10T13:56:29.320Z,1.40
2022-09-10T13:59:00.787Z,1.60
2022-09-10T14:01:46.487Z,1.60
2022-09-10T14:04:22.668Z,1.10
2022-09-10T14:06:49.276Z,1.20
2022-09-10T14:09:17.224Z,1.00
2022-09-10T14:11:44.109Z,1.23
2022-09-10T14:14:36.993Z,0.80
2022-09-10T14:17:07.005Z,0.82
2022-09-10T14:19:43.108Z,1.00
2022-09-10T14:22:15.447Z,0.90
2022-09-10T14:24:48.197Z,1.25
2022-09-10T14:27:16.670Z,0.95
2022-09-10T14:29:43.594Z,1.05
2022-09-10T14:32:17.021Z,0.90
2022-09-10T14:34:43.390Z,0.90
2022-09-10T14:37:28.333Z,0.80
2022-09-10T14:39:56.631Z,0.80
2022-09-10T14:42:31.266Z,1.17
2022-09-10T14:44:57.603Z,0.82
2022-09-10T14:47:29.869Z,0.60
2022-09-10T14:50:14.794Z,1.00
2022-09-10T14:52:41.137Z,1.10
2022-09-10T14:55:07.612Z,1.20
2022-09-10T14:57:34.031Z,1.45
2022-09-10T15:00:00.469Z,1.40
2022-09-10T15:02:27.578Z,1.20
2022-09-10T15:04:54.364Z,1.35
2022-09-10T15:07:23.563Z,0.77
2022-09-10T15:09:52.005Z,0.90
2022-09-10T15:12:22.542Z,1.17
2022-09-10T15:14:48.969Z,1.73
2022-09-10T15:17:17.625Z,1.63
2022-09-10T15:19:44.446Z,0.98
2022-09-10T15:22:31.092Z,1.20
2022-09-10T15:25:13.048Z,1.08
2022-09-10T15:27:39.419Z,1.10
2022-09-10T15:30:06.341Z,1.27
2022-09-10T15:32:32.706Z,1.50
2022-09-10T15:34:59.181Z,1.40
2022-09-10T15:37:25.597Z,0.95
2022-09-10T15:39:52.687Z,0.95
2022-09-10T15:42:19.068Z,1.77
2022-09-10T15:44:45.416Z,1.73
2022-09-10T15:47:11.776Z,1.17
2022-09-10T15:49:38.065Z,1.23
2022-09-10T15:52:04.880Z,1.75
2022-09-10T15:54:31.274Z,1.48
2022-09-10T15:56:59.173Z,1.38
2022-09-10T15:59:25.531Z,1.30
2022-09-10T16:01:51.969Z,1.15
2022-09-10T16:04:18.387Z,1.55
2022-09-10T16:06:44.733Z,1.20
2022-09-10T16:09:12.496Z,1.05
2022-09-10T16:11:39.502Z,1.33
2022-09-10T16:14:07.483Z,1.45
2022-09-10T16:16:35.105Z,1.42
2022-09-10T16:19:01.747Z,1.58
2022-09-10T16:21:29.479Z,1.35
2022-09-10T16:23:57.001Z,1.45
2022-09-10T16:26:24.602Z,1.70
2022-09-10T16:28:55.741Z,2.25
2022-09-10T16:31:24.159Z,2.00
2022-09-10T16:33:54.687Z,1.58
2022-09-10T16:36:22.266Z,1.48
2022-09-10T16:38:52.169Z,1.50
2022-09-10T16:41:18.472Z,1.50
2022-09-10T16:43:44.867Z,1.33
2022-09-10T16:46:12.693Z,1.27
2022-09-10T16:48:40.399Z,1.10
2022-09-10T16:51:16.848Z,1.40
2022-09-10T16:53:44.487Z,1.40
2022-09-10T16:56:12.718Z,1.70
2022-09-10T16:58:39.717Z,2.50
2022-09-10T17:01:08.820Z,2.75
2022-09-10T17:03:35.992Z,2.03
2022-09-10T17:06:02.446Z,1.63
2022-09-10T17:08:29.255Z,1.50
2022-09-10T17:10:56.139Z,1.83
2022-09-10T17:13:22.693Z,2.40
2022-09-10T17:15:49.095Z,1.42
2022-09-10T17:18:15.465Z,1.63
2022-09-10T17:20:42.205Z,1.35
2022-09-10T17:23:09.352Z,2.58
2022-09-10T17:25:36.045Z,1.75
2022-09-10T17:28:03.214Z,1.80
2022-09-10T17:30:29.609Z,1.75
2022-09-10T17:32:55.991Z,2.33
2022-09-10T17:35:22.460Z,1.92
2022-09-10T17:37:48.789Z,3.03
2022-09-10T17:40:15.259Z,2.50
2022-09-10T17:42:42.260Z,2.40
2022-09-10T17:45:08.821Z,5.15
2022-09-10T17:47:35.129Z,2.58
2022-09-10T17:50:01.495Z,3.25
2022-09-10T17:52:27.877Z,2.35
2022-09-10T17:54:54.184Z,2.72
2022-09-10T17:57:21.160Z,4.07
2022-09-10T17:59:47.443Z,3.08
2022-09-10T18:02:17.641Z,3.50
2022-09-10T18:04:44.128Z,1.65
2022-09-10T18:07:11.118Z,1.77
2022-09-10T18:09:37.507Z,2.05
2022-09-10T18:12:04.109Z,2.60
2022-09-10T18:14:31.107Z,1.73
2022-09-10T18:16:58.721Z,1.90
2022-09-10T18:19:25.357Z,2.75
2022-09-10T18:21:51.674Z,2.83
2022-09-10T18:24:22.522Z,2.30
2022-09-10T18:26:49.942Z,2.30
2022-09-10T18:29:18.019Z,2.42
2022-09-10T18:31:45.749Z,1.70
2022-09-10T18:34:13.902Z,1.90
2022-09-10T18:36:40.249Z,1.98
2022-09-10T18:39:10.764Z,2.63
2022-09-10T18:41:38.046Z,2.67
2022-09-10T18:44:06.252Z,2.60
2022-09-10T18:46:33.014Z,2.42
2022-09-10T18:48:59.907Z,1.40
2022-09-10T18:51:27.294Z,2.17
2022-09-10T18:53:54.841Z,1.92
2022-09-10T18:56:23.292Z,2.80
2022-09-10T18:58:50.776Z,2.42
2022-09-10T19:01:19.094Z,2.10
2022-09-10T19:03:52.083Z,2.05
2022-09-10T19:06:24.165Z,2.08
2022-09-10T19:08:53.274Z,2.10
2022-09-10T19:11:21.044Z,2.65
2022-09-10T19:13:54.413Z,2.35
2022-09-10T19:16:22.465Z,1.92
2022-09-10T19:18:49.823Z,2.13
2022-09-10T19:21:16.281Z,2.03
2022-09-10T19:23:43.561Z,2.30
2022-09-10T19:26:10.458Z,3.60
2022-09-10T19:28:40.676Z,1.45
2022-09-10T19:31:08.414Z,4.95
2022-09-10T19:33:39.401Z,1.40
2022-09-10T19:36:09.754Z,2.70
2022-09-10T19:38:38.069Z,2.67
2022-09-10T19:41:08.683Z,2.67
2022-09-10T19:43:38.209Z,2.45
2022-09-10T19:46:06.111Z,2.00
2022-09-10T19:48:33.161Z,2.75
2022-09-10T19:51:01.099Z,2.15
2022-09-10T19:53:27.496Z,1.35
2022-09-10T19:55:54.322Z,2.25
2022-09-10T19:58:20.779Z,1.63
2022-09-10T20:00:48.359Z,0.93
2022-09-10T20:03:15.097Z,1.23
2022-09-10T20:05:42.913Z,1.70
2022-09-10T20:08:09.835Z,1.45
2022-09-10T20:10:37.722Z,2.22
2022-09-10T20:13:04.834Z,2.60
2022-09-10T20:15:32.037Z,2.50
2022-09-10T20:18:07.894Z,2.72
2022-09-10T20:20:37.585Z,2.40
2022-09-10T20:23:03.980Z,1.90
2022-09-10T20:25:31.844Z,1.27
2022-09-10T20:27:58.622Z,2.13
2022-09-10T20:30:25.116Z,1.33
2022-09-10T20:32:51.449Z,2.85
2022-09-10T20:35:17.833Z,2.65
2022-09-10T20:37:47.806Z,1.60
2022-09-10T20:40:16.506Z,2.05
2022-09-10T20:42:42.945Z,1.60
2022-09-10T20:45:10.137Z,1.67
2022-09-10T20:47:43.941Z,2.17
2022-09-10T20:50:11.604Z,2.80
2022-09-10T20:52:38.322Z,1.88
2022-09-10T20:55:05.614Z,2.47
2022-09-10T20:57:32.152Z,2.30
2022-09-10T20:59:58.659Z,2.22
2022-09-10T21:02:26.333Z,1.85
2022-09-10T21:04:52.810Z,1.70
2022-09-10T21:07:20.217Z,2.30
2022-09-10T21:09:46.621Z,1.90
2022-09-10T21:12:13.181Z,0.90
2022-09-10T21:14:40.742Z,3.08
2022-09-10T21:17:08.961Z,2.00
2022-09-10T21:19:35.322Z,2.58
2022-09-10T21:22:02.842Z,2.70
2022-09-10T21:24:29.163Z,2.63
2022-09-10T21:26:56.301Z,1.70
2022-09-10T21:29:23.048Z,2.03
2022-09-10T21:31:54.791Z,2.47
2022-09-10T21:34:21.299Z,2.55
2022-09-10T21:36:47.747Z,2.63
2022-09-10T21:39:15.437Z,2.40
2022-09-10T21:41:44.046Z,2.22
2022-09-10T21:44:14.185Z,4.03
2022-09-10T21:46:41.430Z,3.50
2022-09-10T21:49:07.918Z,3.17
2022-09-10T21:51:34.407Z,2.70
2022-09-10T21:54:00.860Z,3.33
2022-09-10T21:56:29.469Z,2.35
2022-09-10T21:58:59.319Z,2.38
2022-09-10T22:01:27.731Z,3.15
2022-09-10T22:03:59.763Z,3.40
2022-09-10T22:06:27.854Z,3.45
2022-09-10T22:08:58.061Z,2.13
2022-09-10T22:11:31.907Z,1.25
2022-09-10T22:14:01.234Z,1.35
2022-09-10T22:16:28.517Z,2.92
2022-09-10T22:18:58.859Z,2.53
2022-09-10T22:21:25.613Z,2.08
2022-09-10T22:23:53.123Z,2.22
2022-09-10T22:26:21.434Z,3.42
2022-09-10T22:28:50.830Z,2.92
2022-09-10T22:31:19.181Z,2.80
2022-09-10T22:33:46.550Z,3.00
2022-09-10T22:36:18.698Z,2.90
2022-09-10T22:38:49.414Z,2.63
2022-09-10T22:41:15.884Z,2.13
2022-09-10T22:43:42.841Z,2.85
2022-09-10T22:46:09.940Z,2.15
2022-09-10T22:48:40.849Z,2.78
2022-09-10T22:51:08.047Z,2.50
2022-09-10T22:53:34.941Z,3.72
2022-09-10T22:56:02.225Z,3.78
2022-09-10T22:58:28.548Z,3.50
2022-09-10T23:00:55.139Z,3.65
2022-09-10T23:03:22.057Z,4.53
2022-09-10T23:05:48.688Z,2.35
2022-09-10T23:08:16.065Z,4.03
2022-09-10T23:10:42.373Z,2.50
2022-09-10T23:13:08.669Z,3.33
2022-09-10T23:15:35.008Z,3.17
2022-09-10T23:18:01.344Z,4.45
2022-09-10T23:20:27.994Z,3.25
2022-09-10T23:22:54.363Z,3.13
2022-09-10T23:25:20.765Z,3.58
2022-09-10T23:27:51.227Z,2.35
2022-09-10T23:30:17.949Z,2.42
2022-09-10T23:32:44.311Z,3.28
2022-09-10T23:35:10.659Z,2.47
2022-09-10T23:37:37.216Z,2.42
2022-09-10T23:40:03.903Z,3.58
2022-09-10T23:42:31.252Z,3.05
2022-09-10T23:44:57.637Z,1.65
2022-09-10T23:47:23.923Z,1.00
2022-09-10T23:49:50.240Z,2.92
2022-09-10T23:52:16.595Z,3.00
2022-09-10T23:54:42.957Z,3.53
2022-09-10T23:57:09.246Z,4.00
2022-09-10T23:59:35.617Z,4.05
